sensor_id;sensor_type;location;lat;lon;timestamp;pressure;altitude;pressure_sealevel;temperature;humidity
73501;BME280;61721;42.206;25.320;2023-06-26T12:23:11;99073.75;;;28.73;42.24
73501;BME280;61721;42.206;25.320;2023-06-26T12:25:45;99070.69;;;29.31;40.12
73501;BME280;61721;42.206;25.320;2023-06-26T12:28:15;99082.09;;;29.30;38.75
73501;BME280;61721;42.206;25.320;2023-06-26T12:30:46;99080.38;;;29.15;39.24
73501;BME280;61721;42.206;25.320;2023-06-26T12:33:14;99092.75;;;28.61;40.73
73501;BME280;61721;42.206;25.320;2023-06-26T12:35:42;99083.09;;;29.20;39.73
73501;BME280;61721;42.206;25.320;2023-06-26T12:38:11;99085.63;;;29.35;39.15
73501;BME280;61721;42.206;25.320;2023-06-26T12:40:45;99087.06;;;28.95;40.32
73501;BME280;61721;42.206;25.320;2023-06-26T12:43:22;99094.69;;;29.41;40.31
73501;BME280;61721;42.206;25.320;2023-06-26T12:45:54;99092.81;;;28.99;40.77
73501;BME280;61721;42.206;25.320;2023-06-26T12:48:36;99098.31;;;29.04;40.92
73501;BME280;61721;42.206;25.320;2023-06-26T12:51:14;99100.28;;;28.80;41.87
73501;BME280;61721;42.206;25.320;2023-06-26T12:53:44;99095.75;;;28.89;41.35
73501;BME280;61721;42.206;25.320;2023-06-26T12:56:12;99098.69;;;28.55;42.10
73501;BME280;61721;42.206;25.320;2023-06-26T12:58:39;99109.84;;;28.68;41.48
73501;BME280;61721;42.206;25.320;2023-06-26T13:01:07;99112.91;;;28.67;41.60
73501;BME280;61721;42.206;25.320;2023-06-26T13:03:40;99112.56;;;28.73;41.31
73501;BME280;61721;42.206;25.320;2023-06-26T13:06:08;99111.41;;;28.56;41.61
73501;BME280;61721;42.206;25.320;2023-06-26T13:08:36;99121.81;;;28.88;41.42
73501;BME280;61721;42.206;25.320;2023-06-26T13:11:05;99116.66;;;28.57;42.16
73501;BME280;61721;42.206;25.320;2023-06-26T13:13:34;99113.59;;;28.35;42.38
73501;BME280;61721;42.206;25.320;2023-06-26T13:16:05;99116.06;;;28.60;41.69
73501;BME280;61721;42.206;25.320;2023-06-26T13:18:34;99111.03;;;28.62;41.90
73501;BME280;61721;42.206;25.320;2023-06-26T13:21:02;99107.06;;;28.68;41.94
73501;BME280;61721;42.206;25.320;2023-06-26T13:23:29;99100.28;;;28.37;42.52
73501;BME280;61721;42.206;25.320;2023-06-26T13:25:56;99104.00;;;28.27;42.69
73501;BME280;61721;42.206;25.320;2023-06-26T13:28:25;99097.94;;;28.25;42.63
73501;BME280;61721;42.206;25.320;2023-06-26T13:30:52;99091.41;;;28.11;43.00
73501;BME280;61721;42.206;25.320;2023-06-26T13:33:20;99092.94;;;28.27;42.34
73501;BME280;61721;42.206;25.320;2023-06-26T13:35:47;99088.63;;;28.40;43.40
73501;BME280;61721;42.206;25.320;2023-06-26T13:38:14;99087.50;;;29.02;42.25
73501;BME280;61721;42.206;25.320;2023-06-26T13:40:43;99093.28;;;28.87;42.04
73501;BME280;61721;42.206;25.320;2023-06-26T13:43:10;99094.31;;;29.10;41.57
73501;BME280;61721;42.206;25.320;2023-06-26T13:45:41;99094.94;;;29.07;41.20
73501;BME280;61721;42.206;25.320;2023-06-26T13:48:08;99083.47;;;29.14;39.98
73501;BME280;61721;42.206;25.320;2023-06-26T13:50:35;99094.41;;;29.05;39.84
73501;BME280;61721;42.206;25.320;2023-06-26T13:53:02;99090.88;;;29.18;39.66
73501;BME280;61721;42.206;25.320;2023-06-26T13:55:29;99095.69;;;28.70;41.02
73501;BME280;61721;42.206;25.320;2023-06-26T13:57:58;99090.28;;;29.21;40.04
73501;BME280;61721;42.206;25.320;2023-06-26T14:00:27;99095.22;;;29.24;40.02
73501;BME280;61721;42.206;25.320;2023-06-26T14:02:55;99094.03;;;28.93;40.37
73501;BME280;61721;42.206;25.320;2023-06-26T14:05:24;99099.13;;;28.86;40.52
73501;BME280;61721;42.206;25.320;2023-06-26T14:07:51;99094.69;;;28.42;41.67
73501;BME280;61721;42.206;25.320;2023-06-26T14:10:19;99102.81;;;28.57;41.68
73501;BME280;61721;42.206;25.320;2023-06-26T14:12:47;99087.34;;;28.94;40.55
73501;BME280;61721;42.206;25.320;2023-06-26T14:15:14;99086.38;;;28.85;40.88
73501;BME280;61721;42.206;25.320;2023-06-26T14:17:41;99089.00;;;28.95;40.85
73501;BME280;61721;42.206;25.320;2023-06-26T14:20:11;99088.84;;;28.86;41.30
73501;BME280;61721;42.206;25.320;2023-06-26T14:22:40;99089.63;;;28.49;41.94
73501;BME280;61721;42.206;25.320;2023-06-26T14:25:07;99087.38;;;28.70;41.89
73501;BME280;61721;42.206;25.320;2023-06-26T14:27:35;99082.59;;;28.75;41.85
73501;BME280;61721;42.206;25.320;2023-06-26T14:30:04;99083.53;;;28.90;41.29
73501;BME280;61721;42.206;25.320;2023-06-26T14:32:31;99078.16;;;28.98;41.22
73501;BME280;61721;42.206;25.320;2023-06-26T14:34:58;99082.34;;;28.96;40.95
73501;BME280;61721;42.206;25.320;2023-06-26T14:37:36;99077.03;;;28.99;41.26
73501;BME280;61721;42.206;25.320;2023-06-26T14:40:07;99068.44;;;28.77;42.17
73501;BME280;61721;42.206;25.320;2023-06-26T14:42:34;99056.31;;;28.73;42.37
73501;BME280;61721;42.206;25.320;2023-06-26T14:45:01;99051.50;;;28.78;42.37
73501;BME280;61721;42.206;25.320;2023-06-26T14:47:28;99052.97;;;29.14;41.35
73501;BME280;61721;42.206;25.320;2023-06-26T14:49:56;99056.75;;;29.36;40.95
73501;BME280;61721;42.206;25.320;2023-06-26T14:52:23;99060.66;;;29.35;41.05
73501;BME280;61721;42.206;25.320;2023-06-26T14:54:51;99059.59;;;28.75;41.73
73501;BME280;61721;42.206;25.320;2023-06-26T14:57:19;99058.38;;;29.05;40.98
73501;BME280;61721;42.206;25.320;2023-06-26T14:59:46;99056.84;;;29.31;41.04
73501;BME280;61721;42.206;25.320;2023-06-26T15:02:13;99061.06;;;29.10;41.69
73501;BME280;61721;42.206;25.320;2023-06-26T15:04:41;99070.19;;;29.29;41.45
73501;BME280;61721;42.206;25.320;2023-06-26T15:07:09;99068.97;;;29.54;40.77
73501;BME280;61721;42.206;25.320;2023-06-26T15:09:36;99065.84;;;29.23;41.55
73501;BME280;61721;42.206;25.320;2023-06-26T15:12:06;99071.09;;;29.44;41.67
73501;BME280;61721;42.206;25.320;2023-06-26T15:14:33;99070.06;;;29.02;42.04
73501;BME280;61721;42.206;25.320;2023-06-26T15:17:01;99083.31;;;29.24;41.65
73501;BME280;61721;42.206;25.320;2023-06-26T15:19:28;99072.94;;;28.73;42.95
73501;BME280;61721;42.206;25.320;2023-06-26T15:21:55;99082.91;;;28.31;45.13
73501;BME280;61721;42.206;25.320;2023-06-26T15:24:22;99080.63;;;28.09;46.57
73501;BME280;61721;42.206;25.320;2023-06-26T15:26:49;99100.16;;;27.26;49.63
73501;BME280;61721;42.206;25.320;2023-06-26T15:29:18;99100.91;;;27.37;49.53
73501;BME280;61721;42.206;25.320;2023-06-26T15:31:45;99095.38;;;26.28;52.07
73501;BME280;61721;42.206;25.320;2023-06-26T15:34:12;99094.06;;;26.05;53.00
73501;BME280;61721;42.206;25.320;2023-06-26T15:36:39;99109.81;;;25.39;60.46
73501;BME280;61721;42.206;25.320;2023-06-26T15:39:06;99122.44;;;25.04;61.65
73501;BME280;61721;42.206;25.320;2023-06-26T15:41:35;99124.03;;;24.90;63.00
73501;BME280;61721;42.206;25.320;2023-06-26T15:44:03;99125.91;;;24.74;62.86
73501;BME280;61721;42.206;25.320;2023-06-26T15:46:31;99125.59;;;24.66;62.92
73501;BME280;61721;42.206;25.320;2023-06-26T15:48:59;99139.31;;;25.33;62.02
73501;BME280;61721;42.206;25.320;2023-06-26T15:51:26;99139.84;;;25.20;62.00
73501;BME280;61721;42.206;25.320;2023-06-26T15:53:53;99124.16;;;25.41;61.62
73501;BME280;61721;42.206;25.320;2023-06-26T15:56:20;99133.25;;;25.31;61.43
73501;BME280;61721;42.206;25.320;2023-06-26T15:58:47;99129.97;;;25.44;61.39
73501;BME280;61721;42.206;25.320;2023-06-26T16:01:15;99136.88;;;25.87;61.54
73501;BME280;61721;42.206;25.320;2023-06-26T16:03:43;99142.38;;;25.57;61.65
73501;BME280;61721;42.206;25.320;2023-06-26T16:06:10;99139.88;;;25.45;62.61
73501;BME280;61721;42.206;25.320;2023-06-26T16:08:38;99136.56;;;25.33;62.48
73501;BME280;61721;42.206;25.320;2023-06-26T16:11:06;99140.44;;;25.98;60.20
73501;BME280;61721;42.206;25.320;2023-06-26T16:13:34;99127.78;;;25.92;58.52
73501;BME280;61721;42.206;25.320;2023-06-26T16:16:01;99128.25;;;26.09;58.72
73501;BME280;61721;42.206;25.320;2023-06-26T16:18:28;99132.19;;;25.83;60.87
73501;BME280;61721;42.206;25.320;2023-06-26T16:20:57;99138.53;;;25.94;61.29
73501;BME280;61721;42.206;25.320;2023-06-26T16:23:24;99142.94;;;25.79;59.74
73501;BME280;61721;42.206;25.320;2023-06-26T16:25:51;99133.25;;;26.02;60.11
73501;BME280;61721;42.206;25.320;2023-06-26T16:28:18;99132.72;;;26.00;61.42
73501;BME280;61721;42.206;25.320;2023-06-26T16:30:46;99133.31;;;25.77;62.18
73501;BME280;61721;42.206;25.320;2023-06-26T16:33:13;99133.81;;;25.64;62.95
73501;BME280;61721;42.206;25.320;2023-06-26T16:35:47;99122.53;;;25.85;61.99
73501;BME280;61721;42.206;25.320;2023-06-26T16:38:19;99131.66;;;25.76;61.27
73501;BME280;61721;42.206;25.320;2023-06-26T16:40:46;99139.09;;;25.75;61.36
73501;BME280;61721;42.206;25.320;2023-06-26T16:43:13;99138.81;;;25.67;61.51
73501;BME280;61721;42.206;25.320;2023-06-26T16:45:41;99132.16;;;25.63;62.30
73501;BME280;61721;42.206;25.320;2023-06-26T16:48:08;99136.88;;;25.72;61.49
73501;BME280;61721;42.206;25.320;2023-06-26T16:50:35;99148.47;;;25.79;62.16
73501;BME280;61721;42.206;25.320;2023-06-26T16:53:02;99142.69;;;25.76;62.02
73501;BME280;61721;42.206;25.320;2023-06-26T16:55:32;99145.41;;;25.96;61.06
73501;BME280;61721;42.206;25.320;2023-06-26T16:57:59;99142.41;;;25.67;61.89
73501;BME280;61721;42.206;25.320;2023-06-26T17:00:26;99145.94;;;25.58;61.77
73501;BME280;61721;42.206;25.320;2023-06-26T17:02:54;99149.81;;;25.56;62.49
73501;BME280;61721;42.206;25.320;2023-06-26T17:05:21;99156.47;;;25.71;61.48
73501;BME280;61721;42.206;25.320;2023-06-26T17:07:49;99167.72;;;25.54;62.50
73501;BME280;61721;42.206;25.320;2023-06-26T17:10:18;99167.38;;;25.15;63.60
73501;BME280;61721;42.206;25.320;2023-06-26T17:12:47;99169.00;;;25.06;63.46
73501;BME280;61721;42.206;25.320;2023-06-26T17:15:14;99176.03;;;24.71;64.54
73501;BME280;61721;42.206;25.320;2023-06-26T17:17:41;99172.38;;;24.55;64.30
73501;BME280;61721;42.206;25.320;2023-06-26T17:20:09;99178.19;;;24.64;63.59
73501;BME280;61721;42.206;25.320;2023-06-26T17:22:37;99188.16;;;24.75;62.44
73501;BME280;61721;42.206;25.320;2023-06-26T17:25:05;99191.88;;;24.49;63.56
73501;BME280;61721;42.206;25.320;2023-06-26T17:27:34;99192.38;;;24.41;62.82
73501;BME280;61721;42.206;25.320;2023-06-26T17:30:04;99190.22;;;24.48;63.54
73501;BME280;61721;42.206;25.320;2023-06-26T17:32:32;99198.09;;;24.81;62.85
73501;BME280;61721;42.206;25.320;2023-06-26T17:34:59;99193.06;;;24.68;62.81
73501;BME280;61721;42.206;25.320;2023-06-26T17:37:28;99194.06;;;24.47;64.17
73501;BME280;61721;42.206;25.320;2023-06-26T17:39:55;99194.16;;;24.62;63.90
73501;BME280;61721;42.206;25.320;2023-06-26T17:42:22;99204.19;;;24.93;64.32
73501;BME280;61721;42.206;25.320;2023-06-26T17:44:50;99203.22;;;25.15;63.88
73501;BME280;61721;42.206;25.320;2023-06-26T17:47:21;99207.59;;;24.16;66.61
73501;BME280;61721;42.206;25.320;2023-06-26T17:49:49;99225.22;;;23.83;68.16
73501;BME280;61721;42.206;25.320;2023-06-26T17:52:25;99213.94;;;23.85;68.84
73501;BME280;61721;42.206;25.320;2023-06-26T17:54:52;99209.03;;;24.24;67.22
73501;BME280;61721;42.206;25.320;2023-06-26T17:57:19;99205.72;;;23.58;69.62
73501;BME280;61721;42.206;25.320;2023-06-26T17:59:46;99209.19;;;23.75;69.14
73501;BME280;61721;42.206;25.320;2023-06-26T18:02:14;99213.59;;;23.76;69.42
73501;BME280;61721;42.206;25.320;2023-06-26T18:04:42;99212.50;;;24.09;68.28
73501;BME280;61721;42.206;25.320;2023-06-26T18:07:10;99216.72;;;24.59;66.32
73501;BME280;61721;42.206;25.320;2023-06-26T18:09:37;99215.31;;;24.19;67.69
73501;BME280;61721;42.206;25.320;2023-06-26T18:12:05;99217.38;;;24.02;68.58
73501;BME280;61721;42.206;25.320;2023-06-26T18:14:33;99227.38;;;24.13;67.78
73501;BME280;61721;42.206;25.320;2023-06-26T18:17:00;99227.97;;;23.83;69.12
73501;BME280;61721;42.206;25.320;2023-06-26T18:19:27;99227.25;;;23.39;69.77
73501;BME280;61721;42.206;25.320;2023-06-26T18:21:55;99224.31;;;24.10;67.50
73501;BME280;61721;42.206;25.320;2023-06-26T18:24:23;99233.03;;;23.96;67.71
73501;BME280;61721;42.206;25.320;2023-06-26T18:26:50;99235.25;;;24.00;67.94
73501;BME280;61721;42.206;25.320;2023-06-26T18:29:17;99250.97;;;24.04;67.87
73501;BME280;61721;42.206;25.320;2023-06-26T18:31:44;99246.00;;;24.01;68.12
73501;BME280;61721;42.206;25.320;2023-06-26T18:34:12;99245.81;;;23.81;68.90
73501;BME280;61721;42.206;25.320;2023-06-26T18:36:40;99250.09;;;23.99;68.15
73501;BME280;61721;42.206;25.320;2023-06-26T18:39:08;99248.03;;;24.16;68.09
73501;BME280;61721;42.206;25.320;2023-06-26T18:41:38;99242.38;;;23.95;68.26
73501;BME280;61721;42.206;25.320;2023-06-26T18:44:06;99246.88;;;23.26;71.50
73501;BME280;61721;42.206;25.320;2023-06-26T18:46:33;99251.03;;;22.85;72.42
73501;BME280;61721;42.206;25.320;2023-06-26T18:49:00;99248.03;;;22.86;71.89
73501;BME280;61721;42.206;25.320;2023-06-26T18:51:28;99256.88;;;23.59;69.74
73501;BME280;61721;42.206;25.320;2023-06-26T18:53:56;99264.41;;;24.01;68.71
73501;BME280;61721;42.206;25.320;2023-06-26T18:56:27;99262.97;;;23.39;70.52
73501;BME280;61721;42.206;25.320;2023-06-26T18:58:55;99266.19;;;23.31;70.92
73501;BME280;61721;42.206;25.320;2023-06-26T19:01:22;99264.09;;;23.16;71.30
73501;BME280;61721;42.206;25.320;2023-06-26T19:03:50;99270.28;;;23.55;70.08
73501;BME280;61721;42.206;25.320;2023-06-26T19:06:17;99270.91;;;23.62;69.98
73501;BME280;61721;42.206;25.320;2023-06-26T19:08:45;99275.31;;;22.93;72.11
73501;BME280;61721;42.206;25.320;2023-06-26T19:11:12;99271.69;;;23.09;71.69
73501;BME280;61721;42.206;25.320;2023-06-26T19:13:43;99272.00;;;22.74;73.22
73501;BME280;61721;42.206;25.320;2023-06-26T19:16:11;99270.19;;;22.80;72.72
73501;BME280;61721;42.206;25.320;2023-06-26T19:18:39;99272.97;;;23.02;72.04
73501;BME280;61721;42.206;25.320;2023-06-26T19:21:06;99276.03;;;23.27;71.34
73501;BME280;61721;42.206;25.320;2023-06-26T19:23:33;99279.44;;;23.61;70.21
73501;BME280;61721;42.206;25.320;2023-06-26T19:26:00;99288.97;;;23.80;69.23
73501;BME280;61721;42.206;25.320;2023-06-26T19:28:27;99295.97;;;23.93;68.91
73501;BME280;61721;42.206;25.320;2023-06-26T19:30:56;99298.72;;;23.93;68.48
73501;BME280;61721;42.206;25.320;2023-06-26T19:33:24;99281.97;;;23.19;70.68
73501;BME280;61721;42.206;25.320;2023-06-26T19:35:51;99272.97;;;23.50;70.09
73501;BME280;61721;42.206;25.320;2023-06-26T19:38:18;99279.63;;;23.54;69.42
73501;BME280;61721;42.206;25.320;2023-06-26T19:40:45;99280.41;;;23.77;68.95
73501;BME280;61721;42.206;25.320;2023-06-26T19:43:13;99284.50;;;24.01;67.68
73501;BME280;61721;42.206;25.320;2023-06-26T19:45:40;99285.09;;;24.08;67.35
73501;BME280;61721;42.206;25.320;2023-06-26T19:48:08;99280.91;;;24.27;67.01
73501;BME280;61721;42.206;25.320;2023-06-26T19:50:36;99275.69;;;23.99;67.43
73501;BME280;61721;42.206;25.320;2023-06-26T19:53:03;99275.31;;;23.90;68.55
73501;BME280;61721;42.206;25.320;2023-06-26T19:55:30;99277.19;;;23.85;68.62
73501;BME280;61721;42.206;25.320;2023-06-26T19:57:59;99269.44;;;24.09;67.57
73501;BME280;61721;42.206;25.320;2023-06-26T20:00:26;99276.16;;;23.91;67.30
73501;BME280;61721;42.206;25.320;2023-06-26T20:02:56;99270.28;;;23.55;69.07
73501;BME280;61721;42.206;25.320;2023-06-26T20:05:24;99271.56;;;23.48;68.89
73501;BME280;61721;42.206;25.320;2023-06-26T20:07:51;99263.50;;;23.41;69.35
73501;BME280;61721;42.206;25.320;2023-06-26T20:10:19;99266.50;;;23.35;69.46
73501;BME280;61721;42.206;25.320;2023-06-26T20:12:46;99261.31;;;23.38;69.12
73501;BME280;61721;42.206;25.320;2023-06-26T20:15:13;99260.78;;;23.41;69.06
73501;BME280;61721;42.206;25.320;2023-06-26T20:17:41;99263.72;;;23.56;67.96
73501;BME280;61721;42.206;25.320;2023-06-26T20:20:08;99262.69;;;23.14;69.27
73501;BME280;61721;42.206;25.320;2023-06-26T20:22:37;99262.69;;;23.14;69.22
73501;BME280;61721;42.206;25.320;2023-06-26T20:25:05;99261.97;;;23.02;69.24
73501;BME280;61721;42.206;25.320;2023-06-26T20:27:32;99267.34;;;23.13;68.53
73501;BME280;61721;42.206;25.320;2023-06-26T20:29:59;99267.97;;;22.98;69.06
73501;BME280;61721;42.206;25.320;2023-06-26T20:32:34;99271.28;;;23.01;68.88
73501;BME280;61721;42.206;25.320;2023-06-26T20:35:01;99277.44;;;23.08;68.90
73501;BME280;61721;42.206;25.320;2023-06-26T20:37:28;99269.63;;;22.99;69.03
73501;BME280;61721;42.206;25.320;2023-06-26T20:39:57;99276.06;;;22.88;68.98
73501;BME280;61721;42.206;25.320;2023-06-26T20:42:25;99282.53;;;22.99;68.96
73501;BME280;61721;42.206;25.320;2023-06-26T20:44:53;99282.66;;;22.71;69.53
73501;BME280;61721;42.206;25.320;2023-06-26T20:47:23;99286.81;;;22.90;68.45
73501;BME280;61721;42.206;25.320;2023-06-26T20:49:58;99281.06;;;22.75;68.62
73501;BME280;61721;42.206;25.320;2023-06-26T20:52:26;99286.75;;;22.68;68.99
73501;BME280;61721;42.206;25.320;2023-06-26T20:54:54;99283.16;;;22.67;68.79
73501;BME280;61721;42.206;25.320;2023-06-26T20:57:23;99292.50;;;22.50;69.10
73501;BME280;61721;42.206;25.320;2023-06-26T20:59:50;99303.38;;;22.61;68.82
73501;BME280;61721;42.206;25.320;2023-06-26T21:02:17;99295.66;;;22.58;68.14
73501;BME280;61721;42.206;25.320;2023-06-26T21:04:45;99296.91;;;22.67;67.76
73501;BME280;61721;42.206;25.320;2023-06-26T21:07:12;99299.84;;;22.44;68.53
73501;BME280;61721;42.206;25.320;2023-06-26T21:09:39;99299.31;;;22.47;68.34
73501;BME280;61721;42.206;25.320;2023-06-26T21:12:07;99299.31;;;22.47;68.44
73501;BME280;61721;42.206;25.320;2023-06-26T21:14:36;99304.72;;;22.59;68.07
73501;BME280;61721;42.206;25.320;2023-06-26T21:17:04;99304.53;;;22.65;67.73
73501;BME280;61721;42.206;25.320;2023-06-26T21:19:31;99292.66;;;22.60;67.74
73501;BME280;61721;42.206;25.320;2023-06-26T21:21:58;99300.78;;;22.72;67.28
73501;BME280;61721;42.206;25.320;2023-06-26T21:24:25;99284.50;;;22.65;67.70
73501;BME280;61721;42.206;25.320;2023-06-26T21:26:53;99286.66;;;22.63;67.66
73501;BME280;61721;42.206;25.320;2023-06-26T21:29:20;99292.22;;;22.68;67.44
73501;BME280;61721;42.206;25.320;2023-06-26T21:31:48;99297.66;;;22.63;67.82
73501;BME280;61721;42.206;25.320;2023-06-26T21:34:16;99288.00;;;22.60;67.89
73501;BME280;61721;42.206;25.320;2023-06-26T21:36:43;99284.06;;;22.73;66.98
73501;BME280;61721;42.206;25.320;2023-06-26T21:39:11;99279.28;;;22.63;67.68
73501;BME280;61721;42.206;25.320;2023-06-26T21:41:39;99279.88;;;22.49;67.93
73501;BME280;61721;42.206;25.320;2023-06-26T21:44:06;99281.03;;;22.36;68.39
73501;BME280;61721;42.206;25.320;2023-06-26T21:46:33;99274.56;;;22.42;67.88
73501;BME280;61721;42.206;25.320;2023-06-26T21:49:02;99273.00;;;22.29;68.54
73501;BME280;61721;42.206;25.320;2023-06-26T21:51:29;99270.56;;;22.33;68.15
73501;BME280;61721;42.206;25.320;2023-06-26T21:53:56;99267.00;;;22.32;68.06
73501;BME280;61721;42.206;25.320;2023-06-26T21:56:24;99266.41;;;22.30;68.12
73501;BME280;61721;42.206;25.320;2023-06-26T21:58:51;99270.59;;;22.16;68.44
73501;BME280;61721;42.206;25.320;2023-06-26T22:01:18;99267.41;;;22.24;68.33
73501;BME280;61721;42.206;25.320;2023-06-26T22:03:45;99259.34;;;22.34;67.81
73501;BME280;61721;42.206;25.320;2023-06-26T22:06:14;99265.44;;;22.03;68.79
73501;BME280;61721;42.206;25.320;2023-06-26T22:08:41;99257.78;;;22.22;68.56
73501;BME280;61721;42.206;25.320;2023-06-26T22:11:08;99252.09;;;21.95;69.29
73501;BME280;61721;42.206;25.320;2023-06-26T22:13:35;99252.09;;;21.95;69.30
73501;BME280;61721;42.206;25.320;2023-06-26T22:16:03;99254.06;;;21.83;70.38
73501;BME280;61721;42.206;25.320;2023-06-26T22:18:30;99244.69;;;21.95;69.70
73501;BME280;61721;42.206;25.320;2023-06-26T22:20:57;99252.97;;;22.12;69.27
73501;BME280;61721;42.206;25.320;2023-06-26T22:23:26;99252.88;;;22.07;69.67
73501;BME280;61721;42.206;25.320;2023-06-26T22:25:53;99258.28;;;22.02;69.78
73501;BME280;61721;42.206;25.320;2023-06-26T22:28:20;99263.00;;;22.23;69.08
73501;BME280;61721;42.206;25.320;2023-06-26T22:30:47;99256.41;;;21.91;69.77
73501;BME280;61721;42.206;25.320;2023-06-26T22:33:14;99265.31;;;21.98;69.58
73501;BME280;61721;42.206;25.320;2023-06-26T22:35:42;99273.28;;;21.83;69.45
73501;BME280;61721;42.206;25.320;2023-06-26T22:38:09;99275.91;;;21.78;69.06
73501;BME280;61721;42.206;25.320;2023-06-26T22:40:39;99278.13;;;21.64;69.05
73501;BME280;61721;42.206;25.320;2023-06-26T22:43:06;99285.34;;;21.53;69.02
73501;BME280;61721;42.206;25.320;2023-06-26T22:45:34;99290.34;;;21.73;68.34
73501;BME280;61721;42.206;25.320;2023-06-26T22:48:03;99285.72;;;21.74;68.43
73501;BME280;61721;42.206;25.320;2023-06-26T22:50:30;99288.59;;;21.67;69.39
73501;BME280;61721;42.206;25.320;2023-06-26T22:52:57;99279.66;;;21.71;69.20
73501;BME280;61721;42.206;25.320;2023-06-26T22:55:25;99276.84;;;22.00;68.46
73501;BME280;61721;42.206;25.320;2023-06-26T22:57:54;99277.84;;;21.94;68.51
73501;BME280;61721;42.206;25.320;2023-06-26T23:00:21;99282.81;;;21.80;69.15
73501;BME280;61721;42.206;25.320;2023-06-26T23:02:48;99284.13;;;21.78;69.08
73501;BME280;61721;42.206;25.320;2023-06-26T23:05:16;99282.28;;;21.66;69.70
73501;BME280;61721;42.206;25.320;2023-06-26T23:07:43;99285.31;;;21.82;69.38
73501;BME280;61721;42.206;25.320;2023-06-26T23:10:10;99281.66;;;21.93;69.31
73501;BME280;61721;42.206;25.320;2023-06-26T23:15:07;99285.16;;;21.88;68.96
73501;BME280;61721;42.206;25.320;2023-06-26T23:17:34;99289.69;;;21.37;70.98
73501;BME280;61721;42.206;25.320;2023-06-26T23:20:01;99288.06;;;21.13;71.87
73501;BME280;61721;42.206;25.320;2023-06-26T23:22:30;99285.84;;;20.98;71.65
73501;BME280;61721;42.206;25.320;2023-06-26T23:25:00;99289.13;;;20.72;72.65
73501;BME280;61721;42.206;25.320;2023-06-26T23:27:28;99291.22;;;20.82;72.32
73501;BME280;61721;42.206;25.320;2023-06-26T23:29:55;99286.97;;;20.51;72.93
73501;BME280;61721;42.206;25.320;2023-06-26T23:32:24;99290.72;;;20.85;72.07
73501;BME280;61721;42.206;25.320;2023-06-26T23:34:51;99290.50;;;21.38;70.23
73501;BME280;61721;42.206;25.320;2023-06-26T23:37:21;99286.84;;;21.61;69.68
73501;BME280;61721;42.206;25.320;2023-06-26T23:39:52;99286.94;;;21.66;69.17
73501;BME280;61721;42.206;25.320;2023-06-26T23:42:19;99286.38;;;21.24;70.38
73501;BME280;61721;42.206;25.320;2023-06-26T23:44:47;99282.50;;;21.48;69.74
73501;BME280;61721;42.206;25.320;2023-06-26T23:47:15;99289.59;;;21.61;69.74
73501;BME280;61721;42.206;25.320;2023-06-26T23:49:44;99295.63;;;21.91;68.60
73501;BME280;61721;42.206;25.320;2023-06-26T23:52:11;99286.06;;;21.94;68.09
73501;BME280;61721;42.206;25.320;2023-06-26T23:54:39;99291.03;;;21.80;68.50
73501;BME280;61721;42.206;25.320;2023-06-26T23:57:06;99288.72;;;21.44;69.53
73501;BME280;61721;42.206;25.320;2023-06-26T23:59:34;99279.84;;;21.53;68.51
